Time;durP1;ratioP1;P1;durP2;ratioP2;P2;SDS_P1;SDS_P2;PMS_P1;PMS_P2;Temp;Humidity;BMP_temperature;BMP_pressure;BME280_temperature;BME280_humidity;BME280_pressure;Samples;Min_cycle;Max_cycle;Signal;HPM_P1;HPM_P2
2021/12/31 00:01:40;;;;;;;5.28;2.95;;;;;;;11.26;100.00;101289.28;5021603;28;20032;-52
2021/12/31 00:04:06;;;;;;;5.85;2.80;;;;;;;11.25;100.00;101293.81;5014061;28;20080;-51
2021/12/31 00:06:31;;;;;;;6.25;3.28;;;;;;;11.32;100.00;101281.09;5014755;28;20022;-52
2021/12/31 00:08:57;;;;;;;4.38;2.42;;;;;;;11.34;100.00;101288.91;5015474;28;20026;-51
2021/12/31 00:11:23;;;;;;;6.95;2.80;;;;;;;11.34;100.00;101289.72;5014400;28;20056;-53
2021/12/31 00:13:48;;;;;;;4.43;2.90;;;;;;;11.35;100.00;101291.34;5011882;28;20544;-52
2021/12/31 00:16:14;;;;;;;5.13;2.78;;;;;;;11.35;100.00;101295.91;5018721;28;20112;-51
2021/12/31 00:18:39;;;;;;;4.75;2.85;;;;;;;11.38;100.00;101290.88;5017393;28;20040;-51
2021/12/31 00:21:05;;;;;;;4.55;2.40;;;;;;;11.39;100.00;101291.69;5016471;28;20111;-53
2021/12/31 00:23:30;;;;;;;3.05;2.25;;;;;;;11.44;100.00;101294.44;5020250;28;20045;-51
2021/12/31 00:25:56;;;;;;;3.97;2.53;;;;;;;11.46;100.00;101290.47;5015606;28;20041;-53
2021/12/31 00:28:21;;;;;;;4.97;2.55;;;;;;;11.49;100.00;101289.19;5015666;28;20112;-50
2021/12/31 00:30:52;;;;;;;4.13;2.30;;;;;;;11.47;100.00;101293.97;5015463;28;20037;-53
2021/12/31 00:33:18;;;;;;;5.63;2.97;;;;;;;11.52;100.00;101293.25;5012786;28;20026;-50
2021/12/31 00:35:44;;;;;;;5.03;3.00;;;;;;;11.57;100.00;101298.72;5018543;28;20048;-51
2021/12/31 00:38:09;;;;;;;3.80;2.85;;;;;;;11.55;100.00;101298.97;5009041;28;20025;-53
2021/12/31 00:40:35;;;;;;;4.80;2.60;;;;;;;11.55;100.00;101290.91;5015137;28;20033;-47
2021/12/31 00:43:01;;;;;;;5.88;2.92;;;;;;;11.50;100.00;101294.31;5010316;28;20053;-48
2021/12/31 00:45:26;;;;;;;5.80;3.15;;;;;;;11.57;100.00;101293.34;5017891;28;20025;-51
2021/12/31 00:47:53;;;;;;;4.70;3.15;;;;;;;11.52;100.00;101288.72;5011326;28;20529;-51
2021/12/31 00:50:19;;;;;;;5.38;2.78;;;;;;;11.54;100.00;101286.59;5018269;28;20115;-50
2021/12/31 00:52:44;;;;;;;6.18;2.72;;;;;;;11.55;100.00;101284.72;5012874;28;20025;-49
2021/12/31 00:55:11;;;;;;;6.20;3.03;;;;;;;11.53;100.00;101278.78;5014345;28;20032;-49
2021/12/31 00:57:38;;;;;;;7.20;3.42;;;;;;;11.54;100.00;101286.59;5015073;28;20036;-48
2021/12/31 01:00:06;;;;;;;5.65;3.28;;;;;;;11.50;100.00;101290.81;5019000;28;20029;-49
2021/12/31 01:02:32;;;;;;;5.50;3.40;;;;;;;11.46;100.00;101295.84;5000654;28;20017;-49
2021/12/31 01:04:58;;;;;;;7.78;3.70;;;;;;;11.53;100.00;101301.06;5016679;28;20410;-48
2021/12/31 01:07:24;;;;;;;5.68;3.63;;;;;;;11.51;100.00;101313.91;5021207;28;20116;-50
2021/12/31 01:09:49;;;;;;;5.20;3.28;;;;;;;11.55;100.00;101311.56;5015963;28;20025;-49
2021/12/31 01:12:15;;;;;;;5.18;2.95;;;;;;;11.52;100.00;101304.00;5019619;28;20501;-50
2021/12/31 01:15:04;;;;;;;5.28;3.35;;;;;;;11.54;100.00;101302.69;5019522;28;20029;-51
2021/12/31 01:17:46;;;;;;;12.02;3.85;;;;;;;11.55;100.00;101304.31;5016486;28;20442;-49
2021/12/31 01:20:15;;;;;;;5.65;3.22;;;;;;;11.56;100.00;101305.94;5020434;28;20034;-48
2021/12/31 01:22:41;;;;;;;5.20;3.13;;;;;;;11.55;100.00;101301.63;5018990;28;20405;-50
2021/12/31 01:25:07;;;;;;;6.78;3.72;;;;;;;11.55;100.00;101298.97;5016930;28;20307;-48
2021/12/31 01:27:34;;;;;;;6.85;3.30;;;;;;;11.53;100.00;101301.06;5015482;28;20029;-50
2021/12/31 01:30:00;;;;;;;6.43;3.90;;;;;;;11.53;100.00;101295.72;5014949;28;20039;-49
2021/12/31 01:32:26;;;;;;;7.25;3.85;;;;;;;11.58;100.00;101297.66;5016034;28;20456;-51
2021/12/31 01:34:51;;;;;;;6.35;3.70;;;;;;;11.56;100.00;101300.59;5019513;28;20574;-50
2021/12/31 01:37:17;;;;;;;5.72;3.28;;;;;;;11.56;100.00;101310.50;5017365;28;20033;-48
2021/12/31 01:39:43;;;;;;;5.15;3.60;;;;;;;11.56;100.00;101303.28;5012143;28;20036;-51
2021/12/31 01:42:13;;;;;;;5.78;3.20;;;;;;;11.57;100.00;101304.09;5017916;28;20017;-50
2021/12/31 01:44:46;;;;;;;5.13;3.33;;;;;;;11.55;100.00;101304.31;5019633;28;20030;-49
2021/12/31 01:47:15;;;;;;;6.13;3.40;;;;;;;11.59;100.00;101302.78;5021020;28;20481;-48
2021/12/31 01:49:54;;;;;;;5.28;3.28;;;;;;;11.58;100.00;101309.22;5016595;28;20485;-50
2021/12/31 01:52:20;;;;;;;5.53;3.05;;;;;;;11.62;100.00;101313.03;5014859;28;20033;-50
2021/12/31 01:54:46;;;;;;;5.30;3.13;;;;;;;11.63;100.00;101308.47;5012999;28;20033;-48
2021/12/31 01:57:13;;;;;;;3.95;2.67;;;;;;;11.59;100.00;101310.84;5012568;28;21498;-48
2021/12/31 01:59:40;;;;;;;4.75;3.42;;;;;;;11.62;100.00;101304.16;5014837;28;20021;-49
2021/12/31 02:02:08;;;;;;;4.57;2.65;;;;;;;11.63;100.00;101301.25;5017695;28;20028;-49
2021/12/31 02:04:37;;;;;;;4.43;2.70;;;;;;;11.58;100.00;101306.53;5020927;28;20037;-49
2021/12/31 02:07:04;;;;;;;4.78;2.50;;;;;;;11.61;100.00;101308.72;5016757;28;20033;-48
2021/12/31 02:09:34;;;;;;;5.13;2.72;;;;;;;11.66;100.00;101311.47;5014714;28;20022;-49
2021/12/31 02:12:01;;;;;;;2.70;2.25;;;;;;;11.68;100.00;101306.72;5015941;28;20033;-49
2021/12/31 02:14:28;;;;;;;4.60;2.30;;;;;;;11.71;100.00;101297.38;5020263;28;20033;-50
2021/12/31 02:16:54;;;;;;;3.50;2.53;;;;;;;11.69;100.00;101302.97;5018896;28;20056;-51
2021/12/31 02:19:28;;;;;;;2.50;1.90;;;;;;;11.69;100.00;101302.97;5019363;28;20489;-48
2021/12/31 02:21:56;;;;;;;2.55;1.95;;;;;;;11.69;100.00;101302.97;5016112;28;20057;-50
2021/12/31 02:24:22;;;;;;;2.40;1.90;;;;;;;11.72;100.00;101305.16;5009564;28;20080;-51
2021/12/31 02:26:49;;;;;;;2.58;1.75;;;;;;;11.70;100.00;101309.97;5002738;28;20042;-48
2021/12/31 02:29:14;;;;;;;3.20;2.03;;;;;;;11.68;100.00;101309.41;5013631;28;20525;-49
2021/12/31 02:31:40;;;;;;;2.67;1.75;;;;;;;11.67;100.00;101313.16;5023340;28;20057;-50
2021/12/31 02:34:05;;;;;;;2.22;1.60;;;;;;;11.69;100.00;101308.34;5016696;28;20030;-49
2021/12/31 02:36:31;;;;;;;1.88;1.30;;;;;;;11.69;100.00;101302.97;5015730;28;20030;-50
2021/12/31 02:38:56;;;;;;;2.42;1.52;;;;;;;11.68;100.00;101308.59;5015989;28;20065;-50
2021/12/31 02:41:22;;;;;;;1.52;1.40;;;;;;;11.68;100.00;101308.59;5019994;28;20148;-47
2021/12/31 02:43:48;;;;;;;1.25;1.15;;;;;;;11.69;100.00;101308.34;5013538;28;20025;-49
2021/12/31 02:46:13;;;;;;;1.48;1.20;;;;;;;11.66;100.00;101314.16;5019588;28;20037;-47
2021/12/31 02:48:39;;;;;;;1.50;1.20;;;;;;;11.68;100.00;101314.78;5012287;28;20068;-47
2021/12/31 02:51:06;;;;;;;1.38;1.20;;;;;;;11.70;100.00;101312.66;5014451;28;20026;-48
2021/12/31 02:53:37;;;;;;;2.55;1.38;;;;;;;11.67;100.00;101306.94;5015884;28;20116;-48
2021/12/31 02:56:06;;;;;;;1.92;1.30;;;;;;;11.73;100.00;101301.44;5016124;28;20029;-50
2021/12/31 02:58:33;;;;;;;1.60;1.20;;;;;;;11.71;100.00;101297.38;5011636;28;20132;-49
2021/12/31 03:00:59;;;;;;;3.47;1.10;;;;;;;11.74;100.00;101303.06;5018760;28;20121;-50
2021/12/31 03:03:25;;;;;;;1.00;0.90;;;;;;;11.71;100.00;101298.19;5015249;28;20386;-48
2021/12/31 03:05:55;;;;;;;1.30;1.10;;;;;;;11.71;100.00;101292.00;5017362;28;20022;-47
2021/12/31 03:08:23;;;;;;;1.58;1.30;;;;;;;11.73;100.00;101296.06;5015476;28;20043;-49
2021/12/31 03:10:50;;;;;;;1.23;1.10;;;;;;;11.75;100.00;101285.88;5018097;28;20072;-48
2021/12/31 03:13:16;;;;;;;1.48;1.02;;;;;;;11.73;100.00;101282.63;5012900;28;20114;-49
2021/12/31 03:15:43;;;;;;;1.25;0.95;;;;;;;11.74;100.00;101281.56;5020572;28;20397;-50
2021/12/31 03:18:10;;;;;;;1.00;0.90;;;;;;;11.75;100.00;101285.88;5016392;28;20057;-48
2021/12/31 03:20:39;;;;;;;1.67;1.10;;;;;;;11.76;100.00;101284.84;5015707;28;20481;-48
2021/12/31 03:23:05;;;;;;;1.27;1.10;;;;;;;11.78;100.00;101284.59;5015907;28;20072;-51
2021/12/31 03:25:32;;;;;;;1.20;1.00;;;;;;;11.78;100.00;101276.53;5015778;28;20218;-51
2021/12/31 03:27:58;;;;;;;1.13;0.95;;;;;;;11.78;100.00;101269.31;5013455;28;20441;-49
2021/12/31 03:30:23;;;;;;;2.30;1.13;;;;;;;11.81;100.00;101268.03;5025494;28;20144;-49
2021/12/31 03:32:49;;;;;;;0.93;0.90;;;;;;;11.78;100.00;101266.63;5015179;28;20564;-50
2021/12/31 03:35:14;;;;;;;1.98;1.05;;;;;;;11.82;100.00;101264.28;5018483;28;20485;-50
2021/12/31 03:37:40;;;;;;;1.70;0.98;;;;;;;11.79;100.00;101270.94;5017452;28;20021;-51
2021/12/31 03:40:06;;;;;;;1.45;0.90;;;;;;;11.76;100.00;101258.00;5019598;28;20244;-48
2021/12/31 03:42:32;;;;;;;1.80;1.33;;;;;;;11.75;100.00;101269.78;5016049;28;20482;-48
2021/12/31 03:44:58;;;;;;;1.08;0.98;;;;;;;11.79;100.00;101265.59;5016264;28;20035;-50
2021/12/31 03:47:23;;;;;;;1.08;0.98;;;;;;;11.77;100.00;101261.47;5016527;28;20113;-48
2021/12/31 03:49:49;;;;;;;1.90;1.30;;;;;;;11.80;100.00;101248.41;5016194;28;20140;-49
2021/12/31 03:52:15;;;;;;;4.30;1.30;;;;;;;11.84;100.00;101258.66;5015828;28;20029;-48
2021/12/31 03:54:40;;;;;;;1.92;1.33;;;;;;;11.83;100.00;101268.59;5017199;28;20410;-51
2021/12/31 03:57:06;;;;;;;1.48;1.20;;;;;;;11.84;100.00;101255.97;5018143;28;20441;-48
2021/12/31 03:59:31;;;;;;;3.45;1.48;;;;;;;11.85;100.00;101258.44;5018133;28;20112;-50
2021/12/31 04:01:57;;;;;;;2.03;1.23;;;;;;;11.86;100.00;101259.25;5017050;28;20116;-51
2021/12/31 04:04:22;;;;;;;1.98;1.45;;;;;;;11.90;100.00;101246.97;5017438;28;20087;-48
2021/12/31 04:06:48;;;;;;;1.65;1.30;;;;;;;11.93;100.00;101254.53;5011895;28;20047;-49
2021/12/31 04:09:13;;;;;;;3.03;1.20;;;;;;;11.98;100.00;101259.97;5017012;28;20192;-50
2021/12/31 04:11:39;;;;;;;2.22;1.65;;;;;;;11.95;100.00;101255.09;5018479;28;20029;-50
2021/12/31 04:14:04;;;;;;;2.88;1.60;;;;;;;11.97;100.00;101251.09;5016845;28;20501;-49
2021/12/31 04:16:32;;;;;;;2.67;1.90;;;;;;;11.99;100.00;101248.97;5018466;28;20048;-48
2021/12/31 04:18:58;;;;;;;2.97;1.60;;;;;;;12.00;100.00;101255.16;5017387;28;20037;-50
2021/12/31 04:21:24;;;;;;;2.55;1.63;;;;;;;12.01;100.00;101252.22;5002097;28;20150;-49
2021/12/31 04:24:06;;;;;;;2.85;1.65;;;;;;;12.03;100.00;101262.75;5014237;28;20022;-48
2021/12/31 04:26:32;;;;;;;2.78;2.05;;;;;;;12.04;100.00;101253.63;5014361;28;20021;-49
2021/12/31 04:28:57;;;;;;;3.78;1.67;;;;;;;12.04;100.00;101254.44;5011741;28;20033;-48
2021/12/31 04:31:24;;;;;;;4.88;2.20;;;;;;;12.01;100.00;101252.22;5014174;28;20050;-49
2021/12/31 04:33:50;;;;;;;3.45;1.80;;;;;;;11.96;100.00;101245.97;5013834;28;20026;-48
2021/12/31 04:36:15;;;;;;;4.15;1.98;;;;;;;12.03;100.00;101249.31;5012527;28;20091;-48
2021/12/31 04:38:41;;;;;;;5.43;2.70;;;;;;;11.94;100.00;101248.09;5015691;28;20022;-51
2021/12/31 04:41:06;;;;;;;3.55;2.35;;;;;;;11.98;100.00;101249.22;5013841;28;20029;-48
2021/12/31 04:43:32;;;;;;;4.10;2.08;;;;;;;12.02;100.00;101251.16;5011065;28;20022;-49
2021/12/31 04:45:58;;;;;;;4.30;1.80;;;;;;;12.03;100.00;101252.00;5016030;28;20184;-49
2021/12/31 04:48:23;;;;;;;4.30;2.40;;;;;;;12.01;100.00;101251.41;5010294;28;20181;-48
2021/12/31 04:50:49;;;;;;;5.63;2.30;;;;;;;12.00;100.00;101241.72;5011698;28;20041;-50
2021/12/31 04:53:15;;;;;;;5.43;2.30;;;;;;;11.96;100.00;101259.41;5017645;28;20080;-48
2021/12/31 04:55:41;;;;;;;4.55;2.05;;;;;;;11.99;100.00;101251.66;5018204;28;20033;-50
2021/12/31 04:58:06;;;;;;;7.32;2.42;;;;;;;12.06;100.00;101255.00;5013202;28;20029;-51
2021/12/31 05:00:32;;;;;;;4.40;2.40;;;;;;;12.05;100.00;101255.25;5018207;28;20037;-49
2021/12/31 05:03:04;;;;;;;4.47;2.53;;;;;;;12.03;100.00;101252.81;5015321;28;20513;-49
2021/12/31 05:05:30;;;;;;;5.57;2.50;;;;;;;11.97;100.00;101252.97;5013879;28;20076;-48
2021/12/31 05:07:55;;;;;;;9.35;3.08;;;;;;;12.03;100.00;101255.50;5009791;28;20057;-52
2021/12/31 05:10:21;;;;;;;7.28;2.85;;;;;;;12.06;100.00;101259.56;5015007;28;20398;-48
2021/12/31 05:12:52;;;;;;;7.05;2.72;;;;;;;12.05;100.00;101261.44;5010724;28;20034;-50
2021/12/31 05:15:25;;;;;;;7.85;2.85;;;;;;;12.08;100.00;101260.13;5018846;28;20063;-50
2021/12/31 05:17:50;;;;;;;7.60;3.10;;;;;;;12.06;100.00;101263.06;5013053;28;20049;-48
2021/12/31 05:20:15;;;;;;;5.05;3.13;;;;;;;12.04;100.00;101277.81;5014570;28;20030;-48
2021/12/31 05:22:41;;;;;;;6.70;3.35;;;;;;;11.99;100.00;101267.78;5010259;28;20480;-50
2021/12/31 05:25:07;;;;;;;7.10;2.63;;;;;;;12.05;100.00;101276.75;5014997;28;20108;-48
2021/12/31 05:27:33;;;;;;;5.18;3.38;;;;;;;12.07;100.00;101278.13;5013378;28;20568;-48
2021/12/31 05:29:58;;;;;;;7.68;3.03;;;;;;;12.01;100.00;101275.59;5011771;28;20030;-49
2021/12/31 05:32:24;;;;;;;5.93;2.90;;;;;;;11.98;100.00;101278.75;5011157;28;20433;-49
2021/12/31 05:34:49;;;;;;;6.10;3.20;;;;;;;12.00;100.00;101285.53;5013788;28;20030;-48
2021/12/31 05:37:14;;;;;;;8.18;3.10;;;;;;;12.02;100.00;101282.59;5012546;28;20036;-49
2021/12/31 05:39:40;;;;;;;8.05;3.40;;;;;;;12.00;100.00;101288.19;5015056;28;20026;-50
2021/12/31 05:42:06;;;;;;;6.13;3.05;;;;;;;12.02;99.95;101287.97;5010215;28;20367;-48
2021/12/31 05:44:31;;;;;;;6.03;3.30;;;;;;;12.04;99.99;101293.94;5020011;28;20115;-48
2021/12/31 05:46:57;;;;;;;11.18;4.00;;;;;;;11.99;99.75;101283.88;5017724;28;20113;-50
2021/12/31 05:49:23;;;;;;;6.18;3.53;;;;;;;11.90;100.00;101297.97;5015153;28;20485;-48
2021/12/31 05:51:50;;;;;;;6.65;3.67;;;;;;;11.89;100.00;101285.63;5015908;28;20041;-47
2021/12/31 05:54:15;;;;;;;7.32;4.05;;;;;;;11.94;100.00;101278.44;5017060;28;20036;-50
2021/12/31 05:56:41;;;;;;;7.00;3.28;;;;;;;11.97;100.00;101293.25;5014908;28;20413;-51
2021/12/31 05:59:06;;;;;;;7.22;4.15;;;;;;;11.93;100.00;101292.94;5017488;28;20041;-48
2021/12/31 06:01:32;;;;;;;8.20;3.85;;;;;;;11.94;100.00;101297.25;5017224;28;20054;-50
2021/12/31 06:03:58;;;;;;;7.15;3.83;;;;;;;11.96;100.00;101295.13;5012609;28;20446;-48
2021/12/31 06:06:23;;;;;;;8.52;3.70;;;;;;;11.93;100.00;101289.44;5015676;28;20520;-49
2021/12/31 06:08:49;;;;;;;7.65;3.55;;;;;;;11.95;100.00;101295.38;5017386;28;20672;-50
2021/12/31 06:11:14;;;;;;;5.72;3.85;;;;;;;11.94;100.00;101302.63;5017952;28;20034;-51
2021/12/31 06:13:40;;;;;;;6.40;3.92;;;;;;;12.00;99.84;101301.63;5012362;28;20055;-51
2021/12/31 06:16:06;;;;;;;4.95;3.63;;;;;;;12.01;100.00;101302.44;5017129;28;20043;-48
2021/12/31 06:18:31;;;;;;;10.13;3.85;;;;;;;11.99;99.95;101304.56;5020002;28;20025;-48
2021/12/31 06:20:57;;;;;;;5.38;3.42;;;;;;;11.97;99.83;101296.75;4999865;28;20049;-48
2021/12/31 06:23:22;;;;;;;8.43;4.05;;;;;;;12.01;99.84;101308.63;5013290;28;21584;-48
2021/12/31 06:25:48;;;;;;;7.18;3.95;;;;;;;11.98;99.64;101301.06;5017230;28;20473;-48
2021/12/31 06:28:14;;;;;;;8.80;4.53;;;;;;;11.95;99.40;101319.53;5020001;28;20038;-48
2021/12/31 06:30:39;;;;;;;5.30;4.13;;;;;;;11.96;99.51;101318.47;5018868;28;20094;-51
2021/12/31 06:33:05;;;;;;;8.82;4.07;;;;;;;12.01;99.21;101329.31;5004852;28;20406;-49
2021/12/31 06:35:31;;;;;;;10.45;4.32;;;;;;;12.01;98.92;101324.75;5018775;28;20124;-48
2021/12/31 06:37:58;;;;;;;8.15;4.68;;;;;;;11.91;99.29;101332.66;5012945;28;20120;-51
2021/12/31 06:40:24;;;;;;;8.02;4.05;;;;;;;12.05;99.10;101333.16;5013573;28;20025;-49
2021/12/31 06:42:50;;;;;;;6.35;4.15;;;;;;;12.10;98.96;101327.84;5013234;28;20053;-50
2021/12/31 06:45:16;;;;;;;8.07;4.15;;;;;;;12.09;98.73;101320.84;5018459;28;20117;-49
2021/12/31 06:47:41;;;;;;;5.38;3.97;;;;;;;12.07;98.86;101326.47;5012020;28;20120;-51
2021/12/31 06:50:07;;;;;;;8.70;3.85;;;;;;;12.12;98.43;101330.28;5015893;28;20058;-48
2021/12/31 06:52:38;;;;;;;7.75;4.07;;;;;;;12.08;98.74;101332.66;5011218;28;20025;-50
2021/12/31 06:55:07;;;;;;;8.55;4.45;;;;;;;12.13;98.51;101339.97;4992745;28;20029;-49
2021/12/31 06:57:34;;;;;;;10.00;4.20;;;;;;;12.13;98.40;101348.84;5012940;28;20709;-50
2021/12/31 06:59:59;;;;;;;6.32;4.10;;;;;;;12.05;98.53;101336.66;5018623;28;20024;-48
2021/12/31 07:02:25;;;;;;;5.82;4.40;;;;;;;12.08;98.96;101329.97;5014679;28;20021;-48
2021/12/31 07:04:50;;;;;;;6.85;4.38;;;;;;;12.08;98.89;101328.09;5013920;28;20022;-49
2021/12/31 07:07:16;;;;;;;7.70;4.53;;;;;;;12.02;99.00;101320.19;5012812;28;20128;-48
2021/12/31 07:09:41;;;;;;;7.53;4.50;;;;;;;12.00;98.92;101327.69;5015857;28;20029;-49
2021/12/31 07:12:07;;;;;;;8.70;5.32;;;;;;;12.02;98.90;101328.25;5013761;28;20386;-48
2021/12/31 07:14:33;;;;;;;8.38;5.30;;;;;;;11.99;99.16;101316.13;5016542;28;20076;-49
2021/12/31 07:16:58;;;;;;;5.93;4.53;;;;;;;12.03;98.96;101321.84;5013528;28;20026;-51
2021/12/31 07:19:24;;;;;;;8.55;4.20;;;;;;;12.05;98.91;101320.53;5015879;28;20017;-48
2021/12/31 07:21:49;;;;;;;6.05;4.30;;;;;;;12.02;98.87;101330.94;5010049;28;20026;-51
2021/12/31 07:24:15;;;;;;;9.93;4.90;;;;;;;12.01;99.00;101329.31;5014546;28;20036;-49
2021/12/31 07:26:41;;;;;;;10.85;4.80;;;;;;;12.01;99.36;101334.66;5018892;28;20040;-51
2021/12/31 07:29:06;;;;;;;6.03;4.30;;;;;;;11.99;99.36;101331.41;5000554;28;20614;-48
2021/12/31 07:31:32;;;;;;;10.95;4.68;;;;;;;11.93;99.61;101337.78;5018050;28;20029;-48
2021/12/31 07:33:57;;;;;;;8.75;5.05;;;;;;;11.93;99.80;101351.19;5014542;28;20508;-50
2021/12/31 07:36:23;;;;;;;8.75;3.97;;;;;;;11.90;100.00;101346.31;5013995;28;20061;-48
2021/12/31 07:38:49;;;;;;;4.88;4.10;;;;;;;11.86;100.00;101345.19;5014246;28;20103;-49
2021/12/31 07:41:15;;;;;;;7.03;4.22;;;;;;;11.88;100.00;101343.06;5003396;28;20036;-50
2021/12/31 07:43:41;;;;;;;9.60;4.35;;;;;;;11.87;100.00;101344.13;5013906;28;20123;-51
2021/12/31 07:46:07;;;;;;;11.18;4.53;;;;;;;11.84;100.00;101341.88;5014783;28;20056;-49
2021/12/31 07:48:32;;;;;;;9.07;3.90;;;;;;;11.86;100.00;101331.75;5014323;28;20025;-48
2021/12/31 07:50:58;;;;;;;6.13;3.90;;;;;;;11.89;100.00;101340.13;5017743;28;20123;-50
2021/12/31 07:53:23;;;;;;;7.95;4.32;;;;;;;11.90;100.00;101338.25;5014336;28;20030;-48
2021/12/31 07:55:50;;;;;;;6.15;4.13;;;;;;;11.96;100.00;101331.91;5012433;28;20029;-49
2021/12/31 07:58:15;;;;;;;7.07;4.53;;;;;;;11.92;100.00;101336.97;5014021;28;20520;-50
2021/12/31 08:00:41;;;;;;;4.95;3.72;;;;;;;11.85;100.00;101333.63;5010499;28;20196;-51
2021/12/31 08:03:07;;;;;;;7.82;4.57;;;;;;;11.90;100.00;101343.63;5014269;28;20076;-48
2021/12/31 08:05:33;;;;;;;8.10;4.53;;;;;;;11.92;100.00;101334.28;5015887;28;20502;-50
2021/12/31 08:08:04;;;;;;;8.63;4.53;;;;;;;11.86;100.00;101342.50;5014337;28;20089;-49
2021/12/31 08:10:32;;;;;;;8.30;4.38;;;;;;;11.89;100.00;101336.63;5018709;28;20505;-48
2021/12/31 08:13:00;;;;;;;7.05;4.38;;;;;;;11.89;100.00;101342.00;5014136;28;20414;-49
2021/12/31 08:15:25;;;;;;;8.95;4.68;;;;;;;11.92;100.00;101342.31;5015471;28;20021;-49
2021/12/31 08:17:53;;;;;;;7.88;4.93;;;;;;;11.96;100.00;101331.91;5016110;28;20522;-49
2021/12/31 08:20:20;;;;;;;8.73;4.85;;;;;;;11.93;99.84;101343.13;5016874;28;20036;-50
2021/12/31 08:22:45;;;;;;;9.80;4.75;;;;;;;11.93;100.00;101333.22;5014153;28;20029;-48
2021/12/31 08:25:11;;;;;;;7.13;4.80;;;;;;;11.95;99.69;101336.47;5017226;28;20025;-51
2021/12/31 08:27:36;;;;;;;8.43;5.10;;;;;;;11.97;99.74;101328.16;5016696;28;20030;-51
2021/12/31 08:30:04;;;;;;;8.18;4.53;;;;;;;11.96;99.68;101321.97;5014464;28;20184;-51
2021/12/31 08:32:30;;;;;;;6.90;4.78;;;;;;;11.95;99.67;101324.91;5012664;28;20037;-49
2021/12/31 08:34:55;;;;;;;5.82;4.45;;;;;;;11.96;99.32;101326.53;5016288;28;20029;-48
2021/12/31 08:37:21;;;;;;;7.28;4.68;;;;;;;11.96;99.46;101311.25;5014192;28;20036;-49
2021/12/31 08:39:46;;;;;;;10.65;5.68;;;;;;;12.03;98.83;101300.34;4998819;28;20057;-50
2021/12/31 08:42:12;;;;;;;7.05;4.75;;;;;;;11.95;98.68;101288.13;5011732;28;20185;-52
2021/12/31 08:44:38;;;;;;;11.48;4.82;;;;;;;12.03;98.81;101303.84;5014554;28;20380;-50
2021/12/31 08:47:03;;;;;;;6.50;4.10;;;;;;;12.01;98.61;101303.25;5011117;28;20517;-50
2021/12/31 08:49:29;;;;;;;7.13;4.57;;;;;;;12.01;98.44;101311.31;5015441;28;20485;-48
2021/12/31 08:51:55;;;;;;;7.72;4.65;;;;;;;12.08;98.46;101314.66;5009811;28;20056;-51
2021/12/31 08:54:20;;;;;;;5.20;4.70;;;;;;;12.05;98.24;101301.75;5014819;28;20072;-49
2021/12/31 08:56:46;;;;;;;8.43;4.00;;;;;;;12.08;98.11;101301.25;5009677;28;20034;-49
2021/12/31 08:59:12;;;;;;;5.63;4.35;;;;;;;12.12;97.97;101316.88;5013997;28;20076;-50
2021/12/31 09:01:38;;;;;;;5.88;4.43;;;;;;;12.08;97.79;101314.66;5015493;28;20038;-49
2021/12/31 09:04:04;;;;;;;10.52;4.97;;;;;;;12.10;97.77;101315.25;5014291;28;20541;-48
2021/12/31 09:06:30;;;;;;;7.47;4.57;;;;;;;12.05;97.50;101314.34;5014051;28;20029;-49
2021/12/31 09:08:56;;;;;;;10.63;4.95;;;;;;;12.04;97.81;101323.47;5011637;28;20034;-49
2021/12/31 09:11:21;;;;;;;7.40;4.68;;;;;;;12.08;97.57;101320.03;4997059;28;20037;-49
2021/12/31 09:13:47;;;;;;;7.30;4.88;;;;;;;12.15;97.53;101335.19;5008771;28;20049;-49
2021/12/31 09:16:16;;;;;;;6.03;4.57;;;;;;;12.13;97.38;101330.06;5013288;28;20486;-48
2021/12/31 09:18:42;;;;;;;6.40;4.93;;;;;;;12.12;97.48;101333.78;5014140;28;20112;-51
2021/12/31 09:21:07;;;;;;;6.57;5.20;;;;;;;12.10;97.51;101334.03;5019251;28;20141;-49
2021/12/31 09:23:33;;;;;;;9.05;4.90;;;;;;;12.16;97.22;101336.81;5013846;28;20133;-49
2021/12/31 09:26:01;;;;;;;7.25;5.35;;;;;;;12.14;97.12;101333.56;5014294;28;20034;-51
2021/12/31 09:28:27;;;;;;;9.25;4.90;;;;;;;12.12;97.02;101338.34;5003440;28;20021;-50
2021/12/31 09:30:52;;;;;;;7.75;5.07;;;;;;;12.13;96.95;101338.09;5012112;28;20036;-49
2021/12/31 09:33:18;;;;;;;9.25;6.25;;;;;;;12.13;96.81;101324.69;5012995;28;20029;-51
2021/12/31 09:35:43;;;;;;;6.60;5.38;;;;;;;12.09;96.66;101347.72;5015610;28;20030;-50
2021/12/31 09:38:09;;;;;;;7.38;5.30;;;;;;;12.13;96.76;101337.28;5016366;28;20345;-48
2021/12/31 09:40:37;;;;;;;7.30;5.43;;;;;;;12.19;96.37;101333.63;5014624;28;20100;-52
2021/12/31 09:43:09;;;;;;;9.77;6.43;;;;;;;12.14;96.50;101339.72;5015739;28;20030;-48
2021/12/31 09:45:41;;;;;;;9.30;5.68;;;;;;;12.18;96.47;101340.06;5012913;28;20050;-49
2021/12/31 09:48:11;;;;;;;9.20;5.85;;;;;;;12.21;95.94;101331.50;5014586;28;20091;-49
2021/12/31 09:50:40;;;;;;;6.68;5.47;;;;;;;12.24;95.98;101337.22;5014327;28;20029;-50
2021/12/31 09:53:08;;;;;;;6.50;5.60;;;;;;;12.29;95.53;101321.19;5017061;28;20099;-48
2021/12/31 09:55:46;;;;;;;6.20;5.60;;;;;;;12.27;95.68;101328.66;5014103;28;20507;-48
2021/12/31 09:58:13;;;;;;;9.73;5.95;;;;;;;12.32;95.55;101334.13;5015675;28;20037;-48
2021/12/31 10:00:44;;;;;;;9.90;5.80;;;;;;;12.29;95.32;101326.56;5010443;28;20450;-49
2021/12/31 10:03:14;;;;;;;10.68;5.93;;;;;;;12.32;95.34;101315.31;5016073;28;20033;-49
2021/12/31 10:05:48;;;;;;;6.35;5.60;;;;;;;12.34;94.94;101320.44;5017126;28;20038;-51
2021/12/31 10:08:22;;;;;;;8.45;5.65;;;;;;;12.36;94.83;101305.69;5013945;28;20030;-49
2021/12/31 10:11:20;;;;;;;6.90;5.05;;;;;;;12.36;94.18;101311.06;5013549;28;20038;-49
2021/12/31 10:13:51;;;;;;;6.88;5.05;;;;;;;12.39;94.29;101315.97;5011414;28;20026;-51
2021/12/31 10:16:30;;;;;;;7.68;5.90;;;;;;;12.42;94.01;101303.09;5016774;28;20037;-51
2021/12/31 10:19:26;;;;;;;8.75;5.00;;;;;;;12.43;93.77;101302.03;5013150;28;20025;-49
2021/12/31 10:21:54;;;;;;;6.53;5.60;;;;;;;12.46;93.74;101299.66;5013137;28;20033;-49
2021/12/31 10:24:23;;;;;;;5.85;5.18;;;;;;;12.50;93.56;101299.97;5014246;28;20036;-50
2021/12/31 10:26:50;;;;;;;7.32;5.10;;;;;;;12.48;93.46;101307.47;5014463;28;20065;-51
2021/12/31 10:29:16;;;;;;;5.70;4.70;;;;;;;12.51;93.12;101301.59;5011768;28;20037;-48
2021/12/31 10:31:47;;;;;;;7.60;5.13;;;;;;;12.48;92.75;101312.84;5015434;28;20432;-50
2021/12/31 10:34:31;;;;;;;7.25;5.18;;;;;;;12.51;92.56;101317.72;5013422;28;20045;-49
2021/12/31 10:37:14;;;;;;;5.30;4.80;;;;;;;12.54;92.80;101311.84;5011261;28;20116;-49
2021/12/31 10:39:40;;;;;;;6.65;5.10;;;;;;;12.53;92.93;101310.22;5018990;28;20320;-48
2021/12/31 10:42:09;;;;;;;7.50;5.40;;;;;;;12.51;92.96;101317.72;5016943;28;20112;-50
2021/12/31 10:44:52;;;;;;;6.18;5.57;;;;;;;12.48;92.51;101313.66;5015900;28;20475;-49
2021/12/31 10:47:23;;;;;;;7.80;5.47;;;;;;;12.44;92.43;101307.16;5010938;28;20037;-50
2021/12/31 10:50:04;;;;;;;6.72;4.80;;;;;;;12.48;92.78;101310.97;5015976;28;20021;-49
2021/12/31 10:52:59;;;;;;;7.25;4.68;;;;;;;12.53;92.77;101304.84;5014761;28;20124;-51
2021/12/31 10:55:29;;;;;;;7.57;5.30;;;;;;;12.56;92.47;101312.41;5014364;28;20057;-49
2021/12/31 10:58:01;;;;;;;11.52;5.30;;;;;;;12.50;92.29;101308.03;5013498;28;20120;-51
2021/12/31 11:00:30;;;;;;;5.38;4.53;;;;;;;12.52;92.62;101303.22;5012835;28;20406;-49
2021/12/31 11:02:57;;;;;;;7.60;4.57;;;;;;;12.50;92.45;101299.97;5012804;28;20437;-51
2021/12/31 11:05:23;;;;;;;6.15;3.83;;;;;;;12.50;92.44;101302.66;5014376;28;20026;-50
2021/12/31 11:07:50;;;;;;;7.18;4.45;;;;;;;12.51;91.96;101297.03;5011909;28;20503;-49
2021/12/31 11:10:16;;;;;;;5.82;4.10;;;;;;;12.48;92.21;101302.09;5009332;28;20062;-49
2021/12/31 11:12:46;;;;;;;8.98;4.45;;;;;;;12.51;91.99;101306.97;5013178;28;20478;-51
2021/12/31 11:15:13;;;;;;;5.32;3.95;;;;;;;12.53;91.95;101302.97;5015853;28;20093;-49
2021/12/31 11:17:39;;;;;;;6.05;3.72;;;;;;;12.58;92.08;101297.69;5014480;28;20057;-51
2021/12/31 11:20:07;;;;;;;6.70;4.15;;;;;;;12.52;91.55;101292.47;5013701;28;20117;-49